Time;durP1;ratioP1;P1;durP2;ratioP2;P2;SDS_P1;SDS_P2;PMS_P1;PMS_P2;Temp;Humidity;BMP_temperature;BMP_pressure;BME280_temperature;BME280_humidity;BME280_pressure;Samples;Min_cycle;Max_cycle;Signal;HPM_P1;HPM_P2
2024/01/13 05:01:15;;;;;;;0.68;0.68;;;2.90;99.90;;;;;;5519092;23;20362;-71
2024/01/13 05:03:42;;;;;;;1.63;1.63;;;2.80;99.90;;;;;;4906304;29;20694;-71
2024/01/13 05:06:09;;;;;;;0.52;0.52;;;2.80;99.90;;;;;;4909701;29;20209;-72
2024/01/13 05:08:36;;;;;;;1.13;1.08;;;2.80;99.90;;;;;;4909463;29;20316;-70
2024/01/13 05:11:02;;;;;;;1.70;1.50;;;2.80;99.90;;;;;;4912839;29;20231;-71
2024/01/13 05:13:29;;;;;;;0.77;0.60;;;2.80;99.90;;;;;;4918000;29;20588;-72
2024/01/13 05:15:56;;;;;;;0.57;0.57;;;2.80;99.90;;;;;;4917951;29;20217;-71
2024/01/13 05:18:24;;;;;;;2.03;1.88;;;2.80;99.90;;;;;;4924055;29;20218;-71
2024/01/13 05:20:51;;;;;;;1.55;1.45;;;2.90;99.90;;;;;;4920204;29;20231;-72
2024/01/13 05:23:17;;;;;;;2.92;1.42;;;2.90;99.90;;;;;;4927841;29;20213;-72
2024/01/13 05:25:44;;;;;;;0.77;0.77;;;2.90;99.90;;;;;;4918288;29;20558;-71
2024/01/13 05:28:11;;;;;;;1.30;1.20;;;2.90;99.90;;;;;;4918291;29;20213;-71
2024/01/13 05:30:37;;;;;;;1.55;1.45;;;2.90;99.90;;;;;;4921302;29;20607;-71
2024/01/13 05:33:05;;;;;;;3.42;1.63;;;2.90;99.90;;;;;;4930730;29;20227;-71
2024/01/13 05:35:33;;;;;;;1.25;1.15;;;2.90;99.90;;;;;;4922444;29;20575;-71
2024/01/13 05:37:59;;;;;;;1.15;0.98;;;2.90;99.90;;;;;;4930558;29;20294;-71
2024/01/13 05:40:26;;;;;;;1.20;1.17;;;2.90;99.90;;;;;;4930293;29;20577;-73
2024/01/13 05:42:53;;;;;;;1.20;0.80;;;2.90;99.90;;;;;;4928232;29;20228;-72
2024/01/13 05:45:19;;;;;;;0.95;0.95;;;2.90;99.90;;;;;;4931174;29;20217;-71
2024/01/13 05:47:46;;;;;;;0.45;0.45;;;2.90;99.90;;;;;;4932233;29;20211;-72
2024/01/13 05:50:13;;;;;;;1.02;0.82;;;2.90;99.90;;;;;;4927563;29;20228;-72
2024/01/13 05:52:41;;;;;;;1.55;1.52;;;2.90;99.90;;;;;;4931349;29;21233;-71
2024/01/13 05:55:08;;;;;;;1.75;1.65;;;2.90;99.90;;;;;;4932578;29;20229;-72
2024/01/13 05:57:35;;;;;;;1.88;1.77;;;2.90;99.90;;;;;;4927279;29;20220;-71
2024/01/13 06:00:01;;;;;;;1.35;1.30;;;2.90;99.90;;;;;;4919821;29;20223;-72
2024/01/13 06:02:28;;;;;;;1.20;1.20;;;2.80;99.90;;;;;;4916987;29;20231;-71
2024/01/13 06:04:55;;;;;;;1.10;1.10;;;2.80;99.90;;;;;;4928100;29;20209;-71
2024/01/13 06:07:22;;;;;;;2.45;2.35;;;2.80;99.90;;;;;;4925083;29;20732;-71
2024/01/13 06:09:50;;;;;;;2.72;0.70;;;2.80;99.90;;;;;;4924262;29;20212;-71
2024/01/13 06:12:17;;;;;;;1.20;1.13;;;2.80;99.90;;;;;;4921778;29;20256;-71
2024/01/13 06:14:44;;;;;;;3.72;1.80;;;2.80;99.90;;;;;;4927584;29;20267;-71
2024/01/13 06:17:11;;;;;;;1.85;0.85;;;2.80;99.90;;;;;;4924972;29;20216;-71
2024/01/13 06:19:37;;;;;;;2.47;1.35;;;2.90;99.90;;;;;;4923867;29;20298;-71
2024/01/13 06:22:04;;;;;;;1.85;1.52;;;2.90;99.90;;;;;;4923625;29;20242;-71
2024/01/13 06:24:31;;;;;;;2.50;1.45;;;2.90;99.90;;;;;;4921690;29;20572;-70
2024/01/13 06:26:59;;;;;;;1.65;1.55;;;2.90;99.90;;;;;;4923722;29;20771;-71
2024/01/13 06:29:27;;;;;;;1.35;1.35;;;2.90;99.90;;;;;;4920408;29;20216;-71
2024/01/13 06:31:53;;;;;;;2.25;1.80;;;2.90;99.90;;;;;;4918441;29;20224;-71
2024/01/13 06:34:20;;;;;;;1.30;1.30;;;2.90;99.90;;;;;;4921206;29;20229;-71
2024/01/13 06:36:47;;;;;;;1.02;1.02;;;2.80;99.90;;;;;;4922666;29;20237;-71
2024/01/13 06:39:13;;;;;;;1.27;1.05;;;2.90;99.90;;;;;;4921321;29;20211;-71
2024/01/13 06:41:40;;;;;;;2.25;1.38;;;2.90;99.90;;;;;;4921509;29;20617;-71
2024/01/13 06:44:08;;;;;;;1.27;1.17;;;2.90;99.90;;;;;;4923461;29;20216;-71
2024/01/13 06:46:35;;;;;;;1.88;1.88;;;2.90;99.90;;;;;;4926249;29;20222;-71
2024/01/13 06:49:02;;;;;;;3.63;1.55;;;2.90;99.90;;;;;;4919496;29;20216;-70
2024/01/13 06:51:29;;;;;;;1.67;0.95;;;2.90;99.90;;;;;;4919469;29;20320;-71
2024/01/13 06:53:56;;;;;;;3.15;1.23;;;2.90;99.90;;;;;;4929718;29;20220;-72
2024/01/13 06:56:22;;;;;;;1.05;1.05;;;2.90;99.90;;;;;;4920230;29;20212;-72
2024/01/13 06:58:49;;;;;;;1.30;1.17;;;2.90;99.90;;;;;;4920025;29;20203;-72
2024/01/13 07:01:17;;;;;;;1.88;1.77;;;2.90;99.90;;;;;;4921838;29;20235;-71
2024/01/13 07:03:44;;;;;;;1.85;1.15;;;2.90;99.90;;;;;;4923942;29;20250;-71
2024/01/13 07:06:10;;;;;;;1.30;1.30;;;2.90;99.90;;;;;;4922092;29;20208;-71
2024/01/13 07:08:36;;;;;;;1.17;1.10;;;2.90;99.90;;;;;;4925664;29;20205;-71
2024/01/13 07:11:11;;;;;;;2.28;1.67;;;2.90;99.90;;;;;;4921844;29;20589;-72
2024/01/13 07:13:38;;;;;;;0.95;0.95;;;2.90;99.90;;;;;;4925830;29;20866;-72
2024/01/13 07:16:05;;;;;;;0.55;0.55;;;2.90;99.90;;;;;;4919524;29;20212;-71
2024/01/13 07:18:33;;;;;;;3.97;1.42;;;2.90;99.90;;;;;;4924610;29;20212;-72
2024/01/13 07:20:59;;;;;;;1.33;1.23;;;2.90;99.90;;;;;;4924159;29;20239;-71
2024/01/13 07:23:26;;;;;;;1.50;1.25;;;2.90;99.90;;;;;;4922553;29;20238;-71
2024/01/13 07:25:53;;;;;;;1.05;1.00;;;2.90;99.90;;;;;;4920997;29;20215;-71
2024/01/13 07:28:20;;;;;;;1.90;1.83;;;2.90;99.90;;;;;;4919233;29;20702;-72
2024/01/13 07:30:47;;;;;;;1.00;1.00;;;2.90;99.90;;;;;;4918478;29;20261;-71
2024/01/13 07:33:14;;;;;;;1.10;0.93;;;2.90;99.90;;;;;;4923248;29;20207;-72
2024/01/13 07:35:42;;;;;;;1.13;1.13;;;2.90;99.90;;;;;;4914611;29;20215;-71
2024/01/13 07:38:09;;;;;;;0.90;0.90;;;2.90;99.90;;;;;;4921416;29;20694;-72
2024/01/13 07:40:36;;;;;;;1.35;1.25;;;2.90;99.90;;;;;;4923315;29;20227;-72
2024/01/13 07:43:04;;;;;;;1.75;1.30;;;2.90;99.90;;;;;;4917879;29;20287;-74
2024/01/13 07:45:30;;;;;;;0.80;0.80;;;2.90;99.90;;;;;;4921415;29;20218;-73
2024/01/13 07:47:57;;;;;;;1.45;1.45;;;2.90;99.90;;;;;;4921736;29;20203;-73
2024/01/13 07:50:24;;;;;;;3.47;1.20;;;2.90;99.90;;;;;;4916866;29;20573;-73
2024/01/13 07:52:52;;;;;;;0.95;0.95;;;2.90;99.90;;;;;;4921900;29;20284;-73
2024/01/13 07:55:19;;;;;;;0.85;0.52;;;2.90;99.90;;;;;;4923515;29;20215;-73
2024/01/13 07:57:45;;;;;;;0.60;0.52;;;3.00;99.90;;;;;;4920620;29;20220;-74
2024/01/13 08:00:13;;;;;;;1.15;1.15;;;3.00;99.90;;;;;;4919812;29;20212;-73
2024/01/13 08:02:40;;;;;;;0.60;0.60;;;3.00;99.90;;;;;;4918115;29;20239;-73
2024/01/13 08:05:07;;;;;;;0.65;0.65;;;2.90;99.90;;;;;;4919288;29;20238;-74
2024/01/13 08:07:34;;;;;;;1.17;1.15;;;2.90;99.90;;;;;;4917822;29;20212;-73
2024/01/13 08:10:03;;;;;;;0.95;0.95;;;2.90;99.90;;;;;;4923910;29;20641;-74
2024/01/13 08:12:29;;;;;;;0.98;0.98;;;3.00;99.90;;;;;;4916487;29;20284;-73
2024/01/13 08:14:56;;;;;;;0.70;0.70;;;3.00;99.90;;;;;;4918227;29;20208;-74
2024/01/13 08:17:24;;;;;;;3.47;1.58;;;3.00;99.90;;;;;;4922098;29;20249;-72
2024/01/13 08:19:51;;;;;;;0.63;0.63;;;3.00;99.90;;;;;;4916279;29;20234;-74
2024/01/13 08:22:18;;;;;;;0.60;0.60;;;3.00;99.90;;;;;;4914572;29;20691;-73
2024/01/13 08:24:44;;;;;;;1.40;1.30;;;3.00;99.90;;;;;;4916342;29;20307;-74
2024/01/13 08:27:12;;;;;;;1.55;1.42;;;3.00;99.90;;;;;;4914811;29;20222;-73
2024/01/13 08:29:39;;;;;;;3.70;1.85;;;3.10;99.90;;;;;;4922627;29;20216;-74
2024/01/13 08:32:06;;;;;;;2.33;1.45;;;3.00;99.90;;;;;;4916789;29;20231;-73
2024/01/13 08:34:33;;;;;;;1.10;1.00;;;3.10;99.90;;;;;;4916118;29;20220;-71
2024/01/13 08:36:59;;;;;;;0.88;0.88;;;3.10;99.90;;;;;;4914028;29;20210;-73
2024/01/13 08:39:26;;;;;;;1.15;0.90;;;3.10;99.90;;;;;;4924454;29;20207;-73
2024/01/13 08:41:53;;;;;;;0.55;0.55;;;3.10;99.90;;;;;;4920023;29;20717;-73
2024/01/13 08:44:21;;;;;;;1.10;1.10;;;3.10;99.90;;;;;;4923494;29;20212;-72
2024/01/13 08:46:48;;;;;;;0.65;0.63;;;3.10;99.90;;;;;;4925417;29;20208;-72
2024/01/13 08:49:15;;;;;;;2.60;0.95;;;3.10;99.90;;;;;;4923436;29;20213;-73
2024/01/13 08:51:41;;;;;;;1.65;1.55;;;3.10;99.90;;;;;;4922789;29;20316;-73
2024/01/13 08:54:08;;;;;;;1.75;1.00;;;3.10;99.90;;;;;;4921268;29;20689;-72
2024/01/13 08:56:35;;;;;;;1.25;1.20;;;3.10;99.90;;;;;;4921349;29;20213;-73
2024/01/13 08:59:02;;;;;;;0.35;0.35;;;3.10;99.90;;;;;;4925125;29;20329;-72
2024/01/13 09:01:30;;;;;;;2.35;1.50;;;3.10;99.90;;;;;;4919648;29;20251;-72
2024/01/13 09:03:57;;;;;;;0.88;0.88;;;3.10;99.90;;;;;;4921431;29;20235;-72
2024/01/13 09:06:24;;;;;;;1.65;1.55;;;3.10;99.90;;;;;;4922940;29;20296;-73
2024/01/13 09:08:50;;;;;;;0.90;0.90;;;3.10;99.90;;;;;;4924094;29;20220;-71
2024/01/13 09:11:17;;;;;;;0.93;0.85;;;3.10;99.90;;;;;;4927603;29;20238;-72
2024/01/13 09:13:44;;;;;;;0.93;0.70;;;3.10;99.90;;;;;;4919054;29;20216;-74
2024/01/13 09:16:11;;;;;;;0.90;0.90;;;3.10;99.90;;;;;;4925505;29;20230;-71
2024/01/13 09:18:39;;;;;;;0.55;0.55;;;3.10;99.90;;;;;;4922742;29;20220;-73
2024/01/13 09:21:08;;;;;;;1.88;1.77;;;3.10;99.90;;;;;;4919947;29;20232;-72
2024/01/13 09:23:35;;;;;;;0.75;0.75;;;3.10;99.90;;;;;;4925265;29;20231;-73
2024/01/13 09:26:03;;;;;;;1.60;1.60;;;3.10;99.90;;;;;;4924854;29;20231;-73
2024/01/13 09:28:30;;;;;;;0.70;0.70;;;3.10;99.90;;;;;;4928581;29;20213;-72
2024/01/13 09:30:56;;;;;;;1.95;1.95;;;3.10;99.90;;;;;;4925382;29;20239;-72
2024/01/13 09:33:24;;;;;;;1.55;1.50;;;3.10;99.90;;;;;;4921011;29;20208;-73
2024/01/13 09:35:52;;;;;;;3.75;2.70;;;3.20;99.90;;;;;;4923931;29;20224;-72
2024/01/13 09:38:18;;;;;;;1.33;1.33;;;3.20;99.90;;;;;;4922552;29;20210;-72
2024/01/13 09:40:46;;;;;;;0.88;0.88;;;3.30;99.90;;;;;;4920259;29;20922;-73
2024/01/13 09:43:21;;;;;;;1.27;1.10;;;3.30;99.90;;;;;;4917895;29;20690;-72
2024/01/13 09:45:49;;;;;;;0.90;0.90;;;3.30;99.90;;;;;;4920355;29;20734;-73
2024/01/13 09:48:19;;;;;;;0.65;0.65;;;3.40;99.90;;;;;;4922127;29;20622;-73
2024/01/13 09:50:48;;;;;;;0.60;0.60;;;3.40;99.90;;;;;;4915580;29;20243;-71
2024/01/13 09:53:25;;;;;;;1.42;1.33;;;3.40;99.90;;;;;;4920021;29;20220;-72
2024/01/13 09:55:54;;;;;;;1.60;1.02;;;3.80;99.90;;;;;;4917354;29;20209;-73
2024/01/13 09:58:20;;;;;;;1.70;1.30;;;3.60;99.90;;;;;;4920506;29;20641;-72
2024/01/13 10:00:49;;;;;;;1.10;1.10;;;3.60;99.90;;;;;;4919533;29;20308;-69
2024/01/13 10:03:16;;;;;;;1.17;0.68;;;3.40;99.90;;;;;;4917649;29;20265;-72
2024/01/13 10:05:42;;;;;;;0.57;0.57;;;3.60;99.90;;;;;;4921913;29;20213;-73
2024/01/13 10:08:09;;;;;;;0.75;0.75;;;3.60;99.90;;;;;;4919442;29;20205;-72
2024/01/13 10:10:39;;;;;;;1.08;0.95;;;3.60;99.90;;;;;;4922463;29;20716;-71
2024/01/13 10:13:06;;;;;;;0.70;0.70;;;3.60;99.90;;;;;;4920484;29;20847;-71
2024/01/13 10:15:34;;;;;;;0.40;0.40;;;3.60;99.90;;;;;;4918545;29;20209;-70
2024/01/13 10:18:01;;;;;;;0.55;0.55;;;3.50;99.90;;;;;;4920857;29;20204;-70
2024/01/13 10:20:28;;;;;;;0.50;0.50;;;3.60;99.90;;;;;;4921285;29;20211;-73
2024/01/13 10:22:55;;;;;;;1.02;1.02;;;3.50;99.90;;;;;;4919254;29;20237;-72
2024/01/13 10:25:22;;;;;;;1.17;1.05;;;3.50;99.90;;;;;;4920092;29;20220;-72
2024/01/13 10:27:50;;;;;;;0.65;0.30;;;3.50;99.90;;;;;;4931256;29;20213;-72
2024/01/13 10:30:17;;;;;;;1.27;1.27;;;3.50;99.90;;;;;;4923846;29;20285;-72
2024/01/13 10:32:44;;;;;;;0.77;0.65;;;3.50;99.90;;;;;;4919696;29;20323;-72
2024/01/13 10:35:17;;;;;;;1.48;1.38;;;3.50;99.90;;;;;;4917273;29;20209;-72
2024/01/13 10:37:43;;;;;;;0.98;0.95;;;3.50;99.90;;;;;;4917785;29;20221;-72
2024/01/13 10:40:10;;;;;;;1.25;1.02;;;3.60;99.90;;;;;;4918194;29;20213;-71
2024/01/13 10:42:38;;;;;;;1.58;1.48;;;3.60;99.90;;;;;;4919761;29;20655;-71
2024/01/13 10:45:09;;;;;;;0.77;0.77;;;3.60;99.90;;;;;;4922231;29;20213;-71
2024/01/13 10:47:42;;;;;;;1.95;1.05;;;3.50;99.90;;;;;;4924236;29;20215;-71
2024/01/13 10:50:11;;;;;;;1.08;0.60;;;3.50;99.90;;;;;;4926066;29;20206;-71
2024/01/13 10:52:48;;;;;;;2.35;2.15;;;3.50;99.90;;;;;;4919026;29;20233;-71
2024/01/13 10:55:15;;;;;;;2.00;1.83;;;3.50;99.90;;;;;;4917517;29;20299;-71
2024/01/13 10:57:44;;;;;;;0.75;0.65;;;3.50;99.90;;;;;;4914885;29;20826;-71
2024/01/13 11:00:13;;;;;;;0.40;0.40;;;3.50;99.90;;;;;;4919647;29;20217;-71
2024/01/13 11:02:41;;;;;;;3.22;2.05;;;3.50;99.90;;;;;;4912509;29;20217;-72
2024/01/13 11:05:08;;;;;;;1.45;1.35;;;3.50;99.90;;;;;;4921709;29;20213;-71
2024/01/13 11:07:35;;;;;;;0.85;0.85;;;3.50;99.90;;;;;;4915886;29;20221;-75
2024/01/13 11:10:06;;;;;;;2.67;1.10;;;3.50;99.90;;;;;;4918201;29;20208;-75
2024/01/13 11:12:38;;;;;;;2.35;1.40;;;3.50;99.90;;;;;;4913917;29;20233;-72
2024/01/13 11:15:12;;;;;;;0.88;0.88;;;3.60;99.90;;;;;;4916935;29;20216;-68
2024/01/13 11:17:41;;;;;;;1.13;1.13;;;3.60;99.90;;;;;;4919571;29;20216;-72
2024/01/13 11:20:10;;;;;;;0.90;0.90;;;3.60;99.90;;;;;;4924586;29;20223;-72
2024/01/13 11:22:38;;;;;;;0.77;0.55;;;3.60;99.90;;;;;;4916795;29;20236;-73
2024/01/13 11:25:07;;;;;;;2.35;1.23;;;3.60;99.90;;;;;;4927481;29;20253;-72
2024/01/13 11:27:34;;;;;;;1.10;1.10;;;3.60;99.90;;;;;;4914433;29;20253;-72
2024/01/13 11:30:02;;;;;;;0.65;0.65;;;3.60;99.90;;;;;;4916016;29;20673;-72
2024/01/13 11:32:33;;;;;;;0.85;0.85;;;3.60;99.90;;;;;;4916186;29;20731;-73
2024/01/13 11:35:01;;;;;;;1.10;1.10;;;3.60;99.90;;;;;;4918002;29;20217;-73
2024/01/13 11:37:28;;;;;;;1.42;1.05;;;3.60;99.90;;;;;;4913335;29;20221;-73
2024/01/13 11:40:04;;;;;;;1.05;1.05;;;3.60;99.90;;;;;;4916781;29;20315;-72
2024/01/13 11:42:31;;;;;;;1.63;0.77;;;3.70;99.90;;;;;;4927820;29;20232;-72
2024/01/13 11:44:59;;;;;;;1.65;1.23;;;3.70;99.90;;;;;;4922955;29;20706;-74
2024/01/13 11:47:29;;;;;;;1.00;0.90;;;3.70;99.90;;;;;;4916090;29;20490;-73
2024/01/13 11:49:56;;;;;;;0.60;0.60;;;3.70;99.90;;;;;;4917951;29;20224;-73
2024/01/13 11:52:32;;;;;;;1.33;1.23;;;3.70;99.90;;;;;;4918001;29;20252;-73
2024/01/13 11:54:59;;;;;;;1.77;1.25;;;3.70;99.90;;;;;;4916498;29;20205;-73
2024/01/13 11:57:26;;;;;;;1.42;1.25;;;3.80;99.90;;;;;;4918455;29;20586;-72
2024/01/13 11:59:53;;;;;;;1.60;1.23;;;3.80;99.90;;;;;;4922332;29;20847;-72
2024/01/13 12:02:21;;;;;;;1.50;1.40;;;3.80;99.90;;;;;;4917235;29;20237;-72
2024/01/13 12:04:49;;;;;;;3.92;2.05;;;3.90;99.90;;;;;;4917065;29;20292;-72
2024/01/13 12:07:16;;;;;;;1.42;1.30;;;3.90;99.90;;;;;;4917046;29;20304;-72
2024/01/13 12:09:44;;;;;;;2.65;2.45;;;3.90;99.90;;;;;;4919184;29;20216;-72
2024/01/13 12:12:12;;;;;;;2.20;1.98;;;4.00;99.90;;;;;;4918479;29;20229;-72
2024/01/13 12:14:39;;;;;;;2.42;1.83;;;4.00;99.90;;;;;;4917884;29;20753;-72
2024/01/13 12:17:08;;;;;;;2.10;1.90;;;4.00;99.90;;;;;;4921028;29;20220;-73
2024/01/13 12:19:37;;;;;;;3.75;2.45;;;4.00;99.90;;;;;;4922255;29;20291;-72
2024/01/13 12:22:04;;;;;;;1.70;1.48;;;4.00;99.90;;;;;;4925903;29;20268;-72
2024/01/13 12:24:32;;;;;;;2.90;2.70;;;4.00;99.90;;;;;;4928274;29;20573;-72
2024/01/13 12:27:00;;;;;;;2.35;2.13;;;4.00;99.90;;;;;;4918998;29;20549;-73
2024/01/13 12:29:30;;;;;;;2.05;1.95;;;4.10;99.90;;;;;;4923128;29;20552;-72
2024/01/13 12:31:57;;;;;;;1.80;1.70;;;4.10;99.90;;;;;;4928448;29;20269;-72
2024/01/13 12:34:24;;;;;;;5.65;3.13;;;4.00;99.90;;;;;;4917031;29;20217;-72
2024/01/13 12:36:51;;;;;;;2.33;2.22;;;4.00;99.90;;;;;;4929971;29;20224;-72
2024/01/13 12:39:18;;;;;;;4.97;2.55;;;4.00;99.90;;;;;;4921916;29;20220;-72
2024/01/13 12:41:46;;;;;;;2.47;2.05;;;4.00;99.90;;;;;;4921285;29;20229;-71
2024/01/13 12:44:15;;;;;;;2.75;2.50;;;4.00;99.90;;;;;;4917563;29;20233;-71
2024/01/13 12:46:42;;;;;;;2.67;2.42;;;4.00;99.90;;;;;;4921560;29;20221;-71
2024/01/13 12:49:13;;;;;;;3.35;2.78;;;4.00;99.90;;;;;;4923386;29;20206;-73
2024/01/13 12:51:43;;;;;;;3.67;2.08;;;4.10;99.90;;;;;;4916753;29;20257;-72
2024/01/13 12:54:10;;;;;;;4.35;3.78;;;4.10;99.90;;;;;;4918545;29;20257;-72
2024/01/13 12:56:37;;;;;;;1.40;1.30;;;4.10;99.90;;;;;;4924470;29;20220;-72
2024/01/13 12:59:04;;;;;;;4.90;4.35;;;4.10;99.90;;;;;;4924018;29;20221;-72
2024/01/13 13:01:32;;;;;;;5.45;4.55;;;4.00;99.90;;;;;;4922101;29;20233;-72
2024/01/13 13:03:59;;;;;;;3.50;3.30;;;4.10;99.90;;;;;;4919830;29;20240;-72
2024/01/13 13:06:27;;;;;;;4.63;3.95;;;4.10;99.90;;;;;;4919905;29;20267;-72
2024/01/13 13:08:54;;;;;;;4.03;3.45;;;4.10;99.90;;;;;;4922843;29;20672;-72
2024/01/13 13:11:21;;;;;;;3.15;3.00;;;4.10;99.90;;;;;;4919303;29;20226;-72
2024/01/13 13:13:48;;;;;;;2.95;2.70;;;4.10;99.90;;;;;;4916243;29;20236;-72
2024/01/13 13:16:15;;;;;;;3.60;3.08;;;4.10;99.90;;;;;;4917852;29;20207;-72
2024/01/13 13:18:43;;;;;;;7.53;3.67;;;4.10;99.90;;;;;;4919978;29;20217;-72
2024/01/13 13:21:10;;;;;;;4.30;3.55;;;4.10;99.90;;;;;;4916652;29;20261;-72
2024/01/13 13:23:37;;;;;;;4.50;4.03;;;4.10;99.90;;;;;;4917557;29;20207;-71
2024/01/13 13:26:04;;;;;;;3.05;2.65;;;4.10;99.90;;;;;;4919579;29;20586;-71
2024/01/13 13:28:32;;;;;;;9.45;4.93;;;4.10;99.90;;;;;;4915711;29;20205;-72
2024/01/13 13:30:59;;;;;;;3.42;3.05;;;4.10;99.90;;;;;;4917344;29;20320;-72
2024/01/13 13:33:26;;;;;;;6.63;5.47;;;4.10;99.90;;;;;;4916367;29;20241;-72
2024/01/13 13:35:54;;;;;;;8.70;4.68;;;4.10;99.90;;;;;;4920967;29;20205;-71
2024/01/13 13:38:21;;;;;;;5.53;4.28;;;4.10;99.90;;;;;;4921892;29;20209;-71
2024/01/13 13:40:47;;;;;;;4.30;2.90;;;4.10;99.90;;;;;;4922254;29;20251;-71
2024/01/13 13:43:15;;;;;;;5.32;4.78;;;4.10;99.90;;;;;;4915441;29;20559;-72
2024/01/13 13:45:42;;;;;;;9.80;4.05;;;4.10;99.90;;;;;;4915732;29;20247;-71
2024/01/13 13:48:09;;;;;;;5.65;4.55;;;4.10;99.90;;;;;;4919605;29;20213;-72
2024/01/13 13:50:36;;;;;;;7.88;3.63;;;4.10;99.90;;;;;;4915476;29;20237;-71
2024/01/13 13:53:05;;;;;;;6.05;3.67;;;4.10;99.90;;;;;;4917443;29;20249;-72
2024/01/13 13:55:34;;;;;;;4.10;3.80;;;4.10;99.90;;;;;;4915728;29;20258;-72
2024/01/13 13:58:01;;;;;;;3.53;2.72;;;4.10;99.90;;;;;;4926569;29;20240;-72
2024/01/13 14:00:27;;;;;;;4.10;3.38;;;4.10;99.90;;;;;;4914963;29;20579;-72
2024/01/13 14:02:56;;;;;;;4.90;3.65;;;4.10;99.90;;;;;;4917924;29;20221;-73
2024/01/13 14:05:22;;;;;;;4.55;3.85;;;4.10;99.90;;;;;;4922240;29;20301;-72
2024/01/13 14:07:49;;;;;;;4.95;4.25;;;4.10;99.90;;;;;;4921888;29;20469;-72
2024/01/13 14:10:17;;;;;;;5.40;4.63;;;4.10;99.90;;;;;;4919753;29;20218;-72
2024/01/13 14:12:44;;;;;;;8.15;4.15;;;4.10;99.90;;;;;;4921479;29;20225;-72
2024/01/13 14:15:11;;;;;;;9.05;4.30;;;4.10;99.90;;;;;;4919860;29;20210;-72
2024/01/13 14:17:38;;;;;;;4.28;3.00;;;4.10;99.90;;;;;;4922068;29;20689;-72
2024/01/13 14:20:06;;;;;;;6.05;3.42;;;4.10;99.90;;;;;;4916516;29;20209;-72
2024/01/13 14:22:34;;;;;;;6.32;5.70;;;4.10;99.90;;;;;;4917958;29;20583;-71
2024/01/13 14:25:00;;;;;;;7.20;4.72;;;4.10;99.90;;;;;;4924587;29;20696;-72
2024/01/13 14:27:28;;;;;;;11.40;5.63;;;4.10;99.90;;;;;;4919402;29;20209;-72
2024/01/13 14:29:55;;;;;;;4.93;4.15;;;4.10;99.90;;;;;;4915591;29;20488;-72
2024/01/13 14:32:22;;;;;;;5.10;4.25;;;4.10;99.90;;;;;;4921184;29;20229;-72
2024/01/13 14:34:48;;;;;;;4.97;4.40;;;4.10;99.90;;;;;;4916549;29;20205;-71
2024/01/13 14:37:15;;;;;;;4.68;4.15;;;4.10;99.90;;;;;;4920455;29;20233;-71
2024/01/13 14:39:42;;;;;;;3.65;3.38;;;4.10;99.90;;;;;;4926650;29;20218;-71
2024/01/13 14:42:09;;;;;;;5.50;3.83;;;4.10;99.90;;;;;;4921142;29;20314;-71
2024/01/13 14:44:37;;;;;;;5.10;4.72;;;4.10;99.90;;;;;;4923717;29;20236;-71
2024/01/13 14:47:04;;;;;;;6.70;4.25;;;4.10;99.90;;;;;;4917153;29;20240;-71
2024/01/13 14:49:31;;;;;;;9.23;6.10;;;4.10;99.90;;;;;;4918717;29;20579;-72
2024/01/13 14:51:58;;;;;;;3.35;3.05;;;4.10;99.90;;;;;;4928019;29;20236;-71
2024/01/13 14:54:25;;;;;;;5.75;4.72;;;4.10;99.90;;;;;;4915548;29;20264;-71
2024/01/13 14:56:51;;;;;;;3.40;3.10;;;4.10;99.90;;;;;;4922674;29;20216;-71
2024/01/13 14:59:18;;;;;;;6.57;3.70;;;4.10;99.90;;;;;;4916807;29;20224;-71
2024/01/13 15:01:46;;;;;;;10.55;3.70;;;4.10;99.90;;;;;;4924826;29;20241;-71
2024/01/13 15:04:15;;;;;;;5.57;4.45;;;4.10;99.90;;;;;;4915993;29;20252;-72
2024/01/13 15:06:42;;;;;;;8.20;5.07;;;4.10;99.90;;;;;;4919719;29;20237;-70
2024/01/13 15:09:09;;;;;;;5.43;4.90;;;4.10;99.90;;;;;;4916368;29;20213;-70
2024/01/13 15:11:35;;;;;;;3.70;2.60;;;4.10;99.90;;;;;;4921156;29;20233;-71
2024/01/13 15:14:02;;;;;;;4.95;2.95;;;4.10;99.90;;;;;;4920291;29;20224;-71
2024/01/13 15:16:29;;;;;;;7.43;3.80;;;4.10;99.90;;;;;;4922423;29;20210;-70
2024/01/13 15:18:57;;;;;;;5.93;3.40;;;4.10;99.90;;;;;;4919434;29;20648;-71
2024/01/13 15:21:24;;;;;;;3.35;2.88;;;4.10;99.90;;;;;;4919457;29;20286;-70
2024/01/13 15:23:50;;;;;;;4.72;3.05;;;4.00;99.90;;;;;;4913813;29;20216;-71
2024/01/13 15:26:17;;;;;;;3.13;2.08;;;4.00;99.90;;;;;;4917593;29;20232;-71
2024/01/13 15:28:44;;;;;;;3.95;3.63;;;4.00;99.90;;;;;;4917325;29;20213;-71
2024/01/13 15:31:11;;;;;;;5.53;3.90;;;4.00;99.90;;;;;;4915859;29;20229;-71
2024/01/13 15:33:37;;;;;;;4.20;3.55;;;4.10;99.90;;;;;;4919478;29;20216;-71
2024/01/13 15:36:05;;;;;;;4.47;2.58;;;4.10;99.90;;;;;;4917029;29;20302;-72
2024/01/13 15:38:32;;;;;;;2.95;2.65;;;4.00;99.90;;;;;;4919532;29;20218;-72
2024/01/13 15:40:59;;;;;;;3.80;3.42;;;4.10;99.90;;;;;;4916582;29;20233;-73
2024/01/13 15:43:25;;;;;;;3.85;2.70;;;4.00;99.90;;;;;;4914825;29;20216;-72
2024/01/13 15:45:53;;;;;;;3.03;2.72;;;4.00;99.90;;;;;;4917002;29;20230;-72
2024/01/13 15:48:20;;;;;;;4.75;3.97;;;4.00;99.90;;;;;;4915146;29;20566;-72
2024/01/13 15:50:46;;;;;;;2.13;1.95;;;4.00;99.90;;;;;;4914969;29;20235;-71
2024/01/13 15:53:14;;;;;;;1.80;1.70;;;4.10;99.90;;;;;;4916811;29;20316;-71
2024/01/13 15:55:42;;;;;;;4.80;2.10;;;4.00;99.90;;;;;;4914426;29;20225;-72
2024/01/13 15:58:09;;;;;;;1.92;1.77;;;4.00;99.90;;;;;;4915011;29;20586;-72
2024/01/13 16:00:36;;;;;;;4.22;2.90;;;4.00;99.90;;;;;;4926339;29;20522;-71
2024/01/13 16:03:03;;;;;;;4.40;4.00;;;4.00;99.90;;;;;;4915625;29;20213;-71
2024/01/13 16:05:30;;;;;;;2.53;1.70;;;4.00;99.90;;;;;;4913537;29;20237;-72
2024/01/13 16:07:56;;;;;;;5.60;2.72;;;4.00;99.90;;;;;;4920292;29;20239;-72
2024/01/13 16:10:25;;;;;;;4.80;3.05;;;4.00;99.90;;;;;;4920270;29;20220;-70
2024/01/13 16:12:51;;;;;;;6.45;2.97;;;4.00;99.90;;;;;;4923047;29;20236;-70
2024/01/13 16:15:18;;;;;;;2.45;2.05;;;4.00;99.90;;;;;;4921060;29;20665;-69
2024/01/13 16:17:45;;;;;;;3.30;2.65;;;4.00;99.90;;;;;;4921240;29;20582;-70
2024/01/13 16:20:12;;;;;;;3.45;2.83;;;4.00;99.90;;;;;;4920199;29;20221;-70
2024/01/13 16:22:39;;;;;;;4.97;2.58;;;4.00;99.90;;;;;;4918495;29;20248;-70
2024/01/13 16:25:06;;;;;;;7.70;3.28;;;4.00;99.90;;;;;;4922498;29;20221;-70
2024/01/13 16:27:34;;;;;;;1.75;1.65;;;3.90;99.90;;;;;;4921638;29;20206;-69
2024/01/13 16:30:03;;;;;;;6.05;3.35;;;3.90;99.90;;;;;;4924695;29;20590;-72
2024/01/13 16:32:30;;;;;;;1.85;1.85;;;4.00;99.90;;;;;;4928028;29;20233;-70
2024/01/13 16:34:56;;;;;;;2.70;2.28;;;4.00;99.90;;;;;;4924146;29;20215;-70
2024/01/13 16:37:23;;;;;;;4.25;2.45;;;3.90;99.90;;;;;;4924205;29;20205;-68
2024/01/13 16:39:50;;;;;;;4.53;2.58;;;3.90;99.90;;;;;;4929735;29;20708;-71
2024/01/13 16:42:17;;;;;;;1.23;1.20;;;3.90;99.90;;;;;;4929163;29;20257;-69
2024/01/13 16:44:45;;;;;;;3.72;2.50;;;3.90;99.90;;;;;;4916529;29;20306;-70
2024/01/13 16:47:12;;;;;;;2.45;2.35;;;3.90;99.90;;;;;;4924791;29;20218;-71
2024/01/13 16:49:39;;;;;;;2.10;2.00;;;3.90;99.90;;;;;;4917481;29;20217;-71
2024/01/13 16:52:12;;;;;;;5.82;3.15;;;3.90;99.90;;;;;;4926784;29;20628;-71
2024/01/13 16:54:41;;;;;;;5.70;3.67;;;3.80;99.90;;;;;;4917305;29;20213;-71
2024/01/13 16:57:08;;;;;;;4.88;3.65;;;3.90;99.90;;;;;;4917296;29;20219;-71
2024/01/13 16:59:42;;;;;;;2.17;1.98;;;3.80;99.90;;;;;;4925503;29;20230;-71
2024/01/13 17:02:11;;;;;;;2.30;2.10;;;3.90;99.90;;;;;;4917558;29;20237;-71
2024/01/13 17:04:38;;;;;;;1.70;1.60;;;3.90;99.90;;;;;;4921393;29;20215;-71
2024/01/13 17:07:05;;;;;;;1.40;1.35;;;3.80;99.90;;;;;;4929485;29;20216;-71
2024/01/13 17:09:32;;;;;;;1.70;1.67;;;3.80;99.90;;;;;;4932297;29;20668;-70
2024/01/13 17:11:59;;;;;;;3.50;2.22;;;3.80;99.90;;;;;;4923043;29;20232;-71
2024/01/13 17:14:27;;;;;;;2.22;2.03;;;3.80;99.90;;;;;;4932920;29;20224;-70
2024/01/13 17:16:55;;;;;;;5.20;3.20;;;3.90;99.90;;;;;;4920730;29;20314;-70
2024/01/13 17:19:23;;;;;;;5.28;4.40;;;3.90;99.90;;;;;;4928650;29;20676;-69
2024/01/13 17:21:51;;;;;;;7.82;3.40;;;3.90;99.90;;;;;;4925235;29;20236;-69
2024/01/13 17:24:18;;;;;;;13.43;3.35;;;3.90;99.90;;;;;;4925671;29;20255;-70
2024/01/13 17:26:45;;;;;;;6.80;3.63;;;3.90;99.90;;;;;;4931708;29;20251;-70
2024/01/13 17:29:12;;;;;;;7.00;2.80;;;4.00;99.90;;;;;;4929100;29;20209;-70
2024/01/13 17:31:39;;;;;;;3.97;2.35;;;4.00;99.90;;;;;;4925754;29;20244;-72
2024/01/13 17:34:06;;;;;;;1.80;1.70;;;4.00;99.90;;;;;;4925063;29;20216;-71
2024/01/13 17:36:34;;;;;;;2.78;2.53;;;4.00;99.90;;;;;;4930611;29;20217;-71
2024/01/13 17:39:01;;;;;;;2.15;1.50;;;4.10;99.90;;;;;;4924638;29;20269;-71
2024/01/13 17:41:28;;;;;;;4.05;2.33;;;4.10;99.90;;;;;;4919596;29;20728;-71
2024/01/13 17:43:55;;;;;;;1.83;1.73;;;4.10;99.90;;;;;;4922749;29;20300;-71
2024/01/13 17:46:23;;;;;;;1.85;1.75;;;4.10;99.90;;;;;;4920601;29;20233;-72
2024/01/13 17:48:49;;;;;;;3.15;1.63;;;4.10;99.90;;;;;;4924885;29;20672;-72
2024/01/13 17:51:16;;;;;;;11.57;2.42;;;4.10;99.90;;;;;;4925143;29;20244;-72
2024/01/13 17:53:44;;;;;;;1.85;1.75;;;4.10;99.90;;;;;;4924712;29;20216;-71
2024/01/13 17:56:11;;;;;;;2.83;1.90;;;4.10;99.90;;;;;;4928643;29;20207;-72
2024/01/13 17:58:38;;;;;;;2.40;1.35;;;4.10;99.90;;;;;;4928441;29;20235;-73